Time;durP1;ratioP1;P1;durP2;ratioP2;P2;SDS_P1;SDS_P2;PMS_P1;PMS_P2;Temp;Humidity;BMP_temperature;BMP_pressure;BME280_temperature;BME280_humidity;BME280_pressure;Samples;Min_cycle;Max_cycle;Signal;HPM_P1;HPM_P2
2023/08/04 00:02:10;;;;;;;14.43;6.13;;;;;;;14.46;100.00;100753.47;4985169;28;20145;-74
2023/08/04 00:04:37;;;;;;;13.77;4.80;;;;;;;14.41;100.00;100751.16;4985957;28;20059;-77
2023/08/04 00:07:03;;;;;;;16.05;5.25;;;;;;;14.45;100.00;100763.06;4987564;28;20589;-76
2023/08/04 00:09:30;;;;;;;13.88;4.20;;;;;;;14.47;100.00;100757.81;4988578;28;20050;-76
2023/08/04 00:11:56;;;;;;;18.48;5.30;;;;;;;14.50;100.00;100764.53;4999018;28;20104;-76
2023/08/04 00:14:23;;;;;;;16.40;4.68;;;;;;;14.45;100.00;100765.88;4988205;28;20136;-77
2023/08/04 00:16:49;;;;;;;15.32;5.38;;;;;;;14.40;100.00;100771.19;4988755;28;20042;-77
2023/08/04 00:19:16;;;;;;;17.45;5.35;;;;;;;14.44;100.00;100771.91;4987892;28;20058;-75
2023/08/04 00:21:42;;;;;;;19.52;5.63;;;;;;;14.48;100.00;100766.97;4986388;28;20058;-73
2023/08/04 00:24:09;;;;;;;15.07;4.95;;;;;;;14.41;100.00;100775.53;4986490;28;20072;-76
2023/08/04 00:26:36;;;;;;;17.95;5.30;;;;;;;14.43;100.00;100778.72;4984998;28;20355;-75
2023/08/04 00:29:02;;;;;;;15.55;5.15;;;;;;;14.34;100.00;100778.53;4992942;28;20109;-75
2023/08/04 00:31:29;;;;;;;11.90;4.63;;;;;;;14.49;100.00;100779.75;4988541;28;20609;-76
2023/08/04 00:33:56;;;;;;;18.27;5.47;;;;;;;14.51;100.00;100780.88;4987618;28;20193;-76
2023/08/04 00:36:22;;;;;;;16.38;5.28;;;;;;;14.52;100.00;100778.88;4985538;28;20125;-77
2023/08/04 00:38:49;;;;;;;15.45;5.40;;;;;;;14.47;100.00;100773.81;4987349;28;20145;-76
2023/08/04 00:41:15;;;;;;;17.55;5.55;;;;;;;14.47;100.00;100785.00;4988357;28;20082;-73
2023/08/04 00:43:42;;;;;;;17.25;5.55;;;;;;;14.45;100.00;100787.47;4990423;28;20104;-76
2023/08/04 00:46:09;;;;;;;18.20;5.63;;;;;;;14.47;100.00;100777.41;4988567;28;20207;-76
2023/08/04 00:48:37;;;;;;;14.63;5.55;;;;;;;14.47;100.00;100785.00;4991968;28;20124;-75
2023/08/04 00:51:04;;;;;;;15.77;5.25;;;;;;;14.49;100.00;100786.13;4989116;28;20058;-76
2023/08/04 00:53:31;;;;;;;15.32;5.63;;;;;;;14.53;100.00;100792.44;4988206;28;20054;-75
2023/08/04 00:55:57;;;;;;;13.82;5.10;;;;;;;14.47;100.00;100785.00;4988243;28;20121;-75
2023/08/04 00:58:24;;;;;;;18.15;5.60;;;;;;;14.46;100.00;100794.63;4991766;28;20137;-77
2023/08/04 01:00:50;;;;;;;18.23;6.00;;;;;;;14.48;100.00;100795.75;4985484;28;20128;-75
2023/08/04 01:03:17;;;;;;;15.35;5.18;;;;;;;14.41;100.00;100793.13;4987622;28;20054;-76
2023/08/04 01:06:05;;;;;;;17.63;5.65;;;;;;;14.44;100.00;100799.88;4987342;28;20137;-74
2023/08/04 01:08:34;;;;;;;17.40;5.63;;;;;;;14.53;100.00;100800.03;4989154;28;20137;-75
2023/08/04 01:11:08;;;;;;;13.52;5.00;;;;;;;14.48;100.00;100801.34;4992067;28;20050;-74
2023/08/04 01:13:38;;;;;;;16.30;6.18;;;;;;;14.49;100.00;100788.91;4984113;28;20058;-74
2023/08/04 01:16:07;;;;;;;17.90;6.05;;;;;;;14.59;100.00;100801.06;4988235;28;20534;-74
2023/08/04 01:18:34;;;;;;;20.88;6.00;;;;;;;14.60;100.00;100797.03;4983372;28;20078;-75
2023/08/04 01:21:03;;;;;;;17.92;5.60;;;;;;;14.57;100.00;100798.69;4979716;28;20426;-75
2023/08/04 01:23:30;;;;;;;16.98;5.82;;;;;;;14.50;100.00;100800.91;4983727;28;20051;-76
2023/08/04 01:25:56;;;;;;;15.52;5.50;;;;;;;14.50;100.00;100801.72;4984063;28;20414;-75
2023/08/04 01:28:24;;;;;;;17.20;5.70;;;;;;;14.51;100.00;100803.25;4988025;28;20058;-76
2023/08/04 01:30:54;;;;;;;22.58;6.00;;;;;;;14.52;100.00;100801.25;4989273;28;20066;-73
2023/08/04 01:33:21;;;;;;;17.85;5.90;;;;;;;14.56;100.00;100801.94;4989750;28;20603;-72
2023/08/04 01:35:51;;;;;;;16.27;6.35;;;;;;;14.56;100.00;100799.91;4988552;28;20050;-75
2023/08/04 01:38:18;;;;;;;15.27;5.95;;;;;;;14.61;100.00;100804.19;4984507;28;20138;-72
2023/08/04 01:40:44;;;;;;;23.70;6.18;;;;;;;14.51;100.00;100806.06;4985511;28;20046;-75
2023/08/04 01:43:11;;;;;;;20.20;6.78;;;;;;;14.61;100.00;100809.78;4992304;28;20120;-75
2023/08/04 01:45:37;;;;;;;18.90;5.90;;;;;;;14.52;100.00;100806.84;4989417;28;20050;-76
2023/08/04 01:48:04;;;;;;;23.63;6.15;;;;;;;14.53;100.00;100806.41;4991389;28;20066;-75
2023/08/04 01:50:30;;;;;;;18.40;6.80;;;;;;;14.54;100.00;100810.78;4986902;28;20564;-73
2023/08/04 01:52:58;;;;;;;15.40;6.38;;;;;;;14.52;100.00;100813.22;4986685;28;20116;-75
2023/08/04 01:55:24;;;;;;;17.60;6.18;;;;;;;14.57;100.00;100825.88;4992104;28;20050;-74
2023/08/04 01:57:51;;;;;;;27.63;8.85;;;;;;;14.49;100.00;100821.72;4992820;28;20133;-72
2023/08/04 02:00:18;;;;;;;15.73;5.45;;;;;;;14.45;100.00;100821.81;4995476;28;20093;-76
2023/08/04 02:02:45;;;;;;;14.10;5.60;;;;;;;14.46;100.00;100819.81;4992557;28;20057;-75
2023/08/04 02:05:11;;;;;;;17.38;5.60;;;;;;;14.44;100.00;100825.03;4991035;28;20069;-78
2023/08/04 02:07:38;;;;;;;17.20;5.28;;;;;;;14.40;100.00;100825.13;4991665;28;20618;-76
2023/08/04 02:10:05;;;;;;;20.45;6.13;;;;;;;14.35;100.00;100824.88;4990452;28;20095;-74
2023/08/04 02:12:32;;;;;;;18.67;5.45;;;;;;;14.34;100.00;100831.69;4990595;28;20057;-74
2023/08/04 02:15:00;;;;;;;16.50;5.72;;;;;;;14.34;100.00;100829.69;4973575;28;20050;-77
2023/08/04 02:17:26;;;;;;;21.40;7.32;;;;;;;14.31;100.00;100824.16;4991673;28;20050;-73
2023/08/04 02:19:53;;;;;;;16.73;5.50;;;;;;;14.29;100.00;100829.44;4991006;28;20057;-75
2023/08/04 02:22:19;;;;;;;19.23;5.47;;;;;;;14.28;100.00;100839.81;4992609;28;20054;-75
2023/08/04 02:24:46;;;;;;;16.55;6.00;;;;;;;14.31;100.00;100838.16;4992179;28;20054;-74
2023/08/04 02:27:12;;;;;;;17.30;5.93;;;;;;;14.35;100.00;100841.66;4991288;28;20046;-76
2023/08/04 02:29:39;;;;;;;20.38;6.57;;;;;;;14.35;100.00;100833.28;4992906;28;20491;-74
2023/08/04 02:32:05;;;;;;;22.20;6.03;;;;;;;14.41;100.00;100835.09;4991659;28;20506;-73
2023/08/04 02:34:32;;;;;;;17.20;6.18;;;;;;;14.40;100.00;100838.31;4988298;28;20586;-72
2023/08/04 02:36:59;;;;;;;13.50;5.43;;;;;;;14.30;100.00;100839.38;4991327;28;20074;-76
2023/08/04 02:39:25;;;;;;;21.30;5.45;;;;;;;14.33;100.00;100839.31;4990920;28;20140;-75
2023/08/04 02:41:52;;;;;;;21.40;7.80;;;;;;;14.32;100.00;100839.75;4990438;28;20506;-72
2023/08/04 02:44:18;;;;;;;19.65;6.22;;;;;;;14.30;100.00;100842.19;4991054;28;20635;-74
2023/08/04 02:46:45;;;;;;;18.45;6.10;;;;;;;14.34;100.00;100848.47;4989948;28;20042;-74
2023/08/04 02:49:12;;;;;;;23.13;7.25;;;;;;;14.37;100.00;100845.59;4990943;28;20816;-75
2023/08/04 02:51:38;;;;;;;22.00;7.05;;;;;;;14.40;100.00;100846.72;4991240;28;20097;-76
2023/08/04 02:54:05;;;;;;;18.45;6.28;;;;;;;14.37;100.00;100842.78;4990603;28;20140;-75
2023/08/04 02:56:31;;;;;;;19.50;6.43;;;;;;;14.39;100.00;100848.72;4990503;28;20502;-75
2023/08/04 02:58:58;;;;;;;19.98;6.22;;;;;;;14.33;100.00;100847.69;4990703;28;20148;-73
2023/08/04 03:01:24;;;;;;;19.75;6.78;;;;;;;14.41;100.00;100848.28;4989823;28;20105;-75
2023/08/04 03:03:51;;;;;;;22.15;6.43;;;;;;;14.39;100.00;100847.94;4995458;28;20081;-74
2023/08/04 03:06:17;;;;;;;22.02;6.70;;;;;;;14.40;100.00;100844.72;4993145;28;20491;-73
2023/08/04 03:08:44;;;;;;;18.77;6.22;;;;;;;14.37;100.00;100848.38;4990588;28;20058;-74
2023/08/04 03:11:11;;;;;;;22.60;6.88;;;;;;;14.29;100.00;100851.81;4991758;28;20446;-78
2023/08/04 03:13:38;;;;;;;25.80;7.07;;;;;;;14.20;100.00;100834.84;4989478;28;20058;-75
2023/08/04 03:16:05;;;;;;;20.08;6.82;;;;;;;14.35;100.00;100852.84;4995984;28;20050;-74
2023/08/04 03:18:31;;;;;;;16.98;6.10;;;;;;;14.28;100.00;100847.44;4989234;28;20217;-74
2023/08/04 03:21:02;;;;;;;21.75;7.15;;;;;;;14.24;100.00;100860.72;4990891;28;20054;-75
2023/08/04 03:23:28;;;;;;;20.02;6.72;;;;;;;14.21;100.00;100865.19;4989713;28;20155;-74
2023/08/04 03:25:55;;;;;;;19.23;7.50;;;;;;;14.26;100.00;100861.88;4989791;28;20112;-73
2023/08/04 03:28:22;;;;;;;20.42;6.28;;;;;;;14.21;100.00;100867.22;4990459;28;20111;-72
2023/08/04 03:30:48;;;;;;;19.95;6.68;;;;;;;14.26;100.00;100870.25;4989524;28;20062;-74
2023/08/04 03:33:15;;;;;;;20.80;7.47;;;;;;;14.29;100.00;100874.97;4994398;28;20482;-75
2023/08/04 03:35:41;;;;;;;20.50;6.95;;;;;;;14.32;100.00;100890.09;4988356;28;20054;-73
2023/08/04 03:38:08;;;;;;;21.48;6.78;;;;;;;14.29;100.00;100883.38;4990125;28;20078;-73
2023/08/04 03:40:34;;;;;;;23.65;7.40;;;;;;;14.31;100.00;100886.50;4990019;28;20054;-78
2023/08/04 03:43:01;;;;;;;19.17;6.20;;;;;;;14.29;100.00;100885.38;4989914;28;20112;-74
2023/08/04 03:45:27;;;;;;;27.17;7.50;;;;;;;14.28;100.00;100895.75;4985957;28;20042;-76
2023/08/04 03:47:54;;;;;;;20.35;6.55;;;;;;;14.31;100.00;100900.47;4989189;28;20042;-74
2023/08/04 03:50:23;;;;;;;29.77;8.48;;;;;;;14.34;100.00;100896.00;4989383;28;20081;-74
2023/08/04 03:52:49;;;;;;;20.25;7.57;;;;;;;14.38;100.00;100891.91;4989729;28;20577;-73
2023/08/04 03:55:16;;;;;;;25.67;7.68;;;;;;;14.40;100.00;100900.66;4988714;28;20054;-76
2023/08/04 03:57:42;;;;;;;17.27;7.65;;;;;;;14.37;100.00;100900.72;4989519;28;20125;-72
2023/08/04 04:00:09;;;;;;;23.20;7.00;;;;;;;14.38;100.00;100902.31;4987701;28;20062;-78
2023/08/04 04:02:36;;;;;;;21.42;7.15;;;;;;;14.30;100.00;100900.91;4982147;28;20047;-73
2023/08/04 04:05:03;;;;;;;20.48;7.38;;;;;;;14.23;100.00;100901.09;4988537;28;20056;-75
2023/08/04 04:07:29;;;;;;;21.38;6.68;;;;;;;14.27;100.00;100910.97;4989527;28;20499;-77
2023/08/04 04:09:56;;;;;;;21.15;6.68;;;;;;;14.27;100.00;100912.97;4981317;28;20046;-75
2023/08/04 04:12:22;;;;;;;17.50;7.47;;;;;;;14.29;100.00;100913.34;4988640;28;20121;-77
2023/08/04 04:14:49;;;;;;;23.63;6.85;;;;;;;14.26;100.00;100917.00;4987284;28;20149;-77
2023/08/04 04:17:15;;;;;;;25.92;7.40;;;;;;;14.27;100.00;100910.19;4986236;28;20077;-74
2023/08/04 04:19:42;;;;;;;20.48;6.97;;;;;;;14.28;100.00;100917.34;4987787;28;20159;-74
2023/08/04 04:22:10;;;;;;;19.85;7.97;;;;;;;14.29;100.00;100918.91;4991459;28;20865;-75
2023/08/04 04:24:36;;;;;;;20.88;6.90;;;;;;;14.27;100.00;100924.16;4973694;28;20057;-74
2023/08/04 04:27:03;;;;;;;18.83;6.72;;;;;;;14.31;100.00;100927.66;4989159;28;20050;-75
2023/08/04 04:29:29;;;;;;;19.50;7.00;;;;;;;14.22;100.00;100919.88;4989232;28;20138;-76
2023/08/04 04:31:56;;;;;;;21.25;7.10;;;;;;;14.23;100.00;100929.84;4980685;28;20046;-77
2023/08/04 04:34:22;;;;;;;15.70;5.57;;;;;;;14.23;100.00;100929.06;4988854;28;20085;-77
2023/08/04 04:36:49;;;;;;;24.35;6.93;;;;;;;14.18;100.00;100935.97;4989186;28;20068;-76
2023/08/04 04:39:15;;;;;;;24.35;7.47;;;;;;;14.23;100.00;100937.44;4987099;28;20506;-75
2023/08/04 04:41:42;;;;;;;23.73;6.53;;;;;;;14.21;100.00;100943.47;4985111;28;20128;-76
2023/08/04 04:44:08;;;;;;;20.70;7.70;;;;;;;14.18;100.00;100944.34;4988841;28;20096;-76
2023/08/04 04:46:35;;;;;;;21.90;7.13;;;;;;;14.24;100.00;100941.81;4989025;28;20050;-72
2023/08/04 04:49:03;;;;;;;21.17;6.88;;;;;;;14.20;100.00;100941.13;4987367;28;20050;-75
2023/08/04 04:51:30;;;;;;;18.63;6.10;;;;;;;14.22;100.00;100947.06;4988816;28;20559;-72
2023/08/04 04:53:56;;;;;;;19.95;5.95;;;;;;;14.20;100.00;100952.28;4988391;28;20105;-74
2023/08/04 04:56:24;;;;;;;20.02;6.78;;;;;;;14.21;100.00;100951.09;4988048;28;20101;-76
2023/08/04 04:58:51;;;;;;;20.17;5.78;;;;;;;14.14;100.00;100948.44;4987290;28;20103;-76
2023/08/04 05:01:17;;;;;;;20.08;5.97;;;;;;;14.19;100.00;100950.72;4990560;28;20049;-73
2023/08/04 05:03:44;;;;;;;19.10;6.63;;;;;;;14.24;100.00;100955.78;4988616;28;20166;-73
2023/08/04 05:06:10;;;;;;;19.45;6.80;;;;;;;14.27;100.00;100958.50;4987882;28;20514;-75
2023/08/04 05:08:37;;;;;;;18.02;5.57;;;;;;;14.19;100.00;100956.31;4986308;28;20474;-75
2023/08/04 05:11:03;;;;;;;19.20;6.63;;;;;;;14.21;100.00;100959.47;4988853;28;20216;-75
2023/08/04 05:13:30;;;;;;;22.23;6.93;;;;;;;14.29;100.00;100958.06;4988702;28;20094;-76
2023/08/04 05:15:56;;;;;;;22.67;6.18;;;;;;;14.34;100.00;100957.53;4981032;28;20054;-75
2023/08/04 05:18:23;;;;;;;22.77;7.80;;;;;;;14.33;100.00;100961.56;4987751;28;20525;-76
2023/08/04 05:20:50;;;;;;;20.35;7.10;;;;;;;14.32;100.00;100963.56;4987273;28;20527;-74
2023/08/04 05:23:16;;;;;;;19.45;6.95;;;;;;;14.40;100.00;100961.38;4991634;28;20050;-73
2023/08/04 05:25:43;;;;;;;23.20;7.28;;;;;;;14.39;100.00;100951.44;4987935;28;20164;-74
2023/08/04 05:28:20;;;;;;;21.15;7.45;;;;;;;14.47;100.00;100959.25;4973638;28;20133;-74
2023/08/04 05:30:47;;;;;;;14.60;5.55;;;;;;;14.37;100.00;100959.47;4975045;28;20182;-73
2023/08/04 05:33:14;;;;;;;36.83;8.40;;;;;;;14.45;100.00;100972.09;4991860;28;20085;-76
2023/08/04 05:35:44;;;;;;;21.10;7.00;;;;;;;14.40;100.00;100962.19;4990718;28;20052;-74
2023/08/04 05:38:12;;;;;;;24.08;7.88;;;;;;;14.55;100.00;100957.81;4992205;28;20073;-77
2023/08/04 05:40:43;;;;;;;21.85;7.05;;;;;;;14.55;100.00;100971.81;4992114;28;20529;-77
2023/08/04 05:43:10;;;;;;;23.25;7.82;;;;;;;14.60;100.00;100967.69;4992224;28;20510;-74
2023/08/04 05:45:43;;;;;;;22.15;7.65;;;;;;;14.51;100.00;100973.13;4990721;28;20077;-74
2023/08/04 05:48:10;;;;;;;17.40;7.20;;;;;;;14.54;100.00;100975.84;4991847;28;20507;-77
2023/08/04 05:50:37;;;;;;;26.95;6.93;;;;;;;14.55;100.00;100974.59;4991461;28;20073;-74
2023/08/04 05:53:04;;;;;;;18.98;6.70;;;;;;;14.66;100.00;100986.31;4989569;28;20095;-77
2023/08/04 05:55:31;;;;;;;20.85;7.65;;;;;;;14.69;100.00;100985.44;4989033;28;20506;-75
2023/08/04 05:57:57;;;;;;;23.67;7.85;;;;;;;14.75;100.00;100986.47;4990596;28;20077;-74
2023/08/04 06:00:24;;;;;;;23.95;8.85;;;;;;;14.72;100.00;100992.19;4988371;28;20666;-76
2023/08/04 06:02:51;;;;;;;27.63;9.13;;;;;;;14.90;100.00;100989.69;4991644;28;20093;-75
2023/08/04 06:05:18;;;;;;;27.90;9.20;;;;;;;15.00;100.00;100988.63;4992685;28;20076;-75
2023/08/04 06:07:47;;;;;;;23.27;7.65;;;;;;;15.12;100.00;100996.28;4991535;28;20046;-75
2023/08/04 06:10:16;;;;;;;21.00;7.88;;;;;;;15.17;100.00;100978.94;4990370;28;20062;-77
2023/08/04 06:12:43;;;;;;;24.52;7.85;;;;;;;15.23;100.00;100984.78;4990911;28;20129;-75
2023/08/04 06:15:09;;;;;;;26.83;8.45;;;;;;;15.32;100.00;100994.13;4987051;28;20614;-76
2023/08/04 06:17:36;;;;;;;28.70;8.80;;;;;;;15.34;100.00;100985.28;4988894;28;20109;-74
2023/08/04 06:20:04;;;;;;;25.95;8.50;;;;;;;15.36;100.00;100980.06;4976935;28;20050;-75
2023/08/04 06:22:31;;;;;;;23.55;8.75;;;;;;;15.39;100.00;100979.16;4991813;28;20114;-75
2023/08/04 06:24:57;;;;;;;27.20;9.93;;;;;;;15.42;100.00;100979.03;4990708;28;20821;-73
2023/08/04 06:27:24;;;;;;;28.52;9.85;;;;;;;15.55;100.00;100974.25;4991645;28;20450;-76
2023/08/04 06:29:50;;;;;;;20.60;8.32;;;;;;;15.59;100.00;100974.94;4986935;28;20053;-76
2023/08/04 06:32:17;;;;;;;28.50;11.73;;;;;;;15.72;100.00;100974.94;4985221;28;20078;-76
2023/08/04 06:34:43;;;;;;;22.85;9.15;;;;;;;15.76;100.00;100982.03;4990831;28;20078;-77
2023/08/04 06:37:10;;;;;;;20.58;8.30;;;;;;;15.62;100.00;100974.06;4991500;28;20089;-77
2023/08/04 06:39:37;;;;;;;28.48;9.30;;;;;;;15.76;100.00;100968.00;4989826;28;20085;-77
2023/08/04 06:42:04;;;;;;;24.40;9.48;;;;;;;15.84;100.00;100966.59;4991465;28;20160;-78
2023/08/04 06:44:30;;;;;;;24.35;8.85;;;;;;;15.93;100.00;100969.47;4987058;28;20130;-77
2023/08/04 06:46:57;;;;;;;21.92;8.32;;;;;;;16.04;100.00;100964.31;4989526;28;20587;-77
2023/08/04 06:49:23;;;;;;;23.98;8.52;;;;;;;16.21;100.00;100968.59;4991412;28;20082;-79
2023/08/04 06:51:50;;;;;;;20.58;8.68;;;;;;;16.27;100.00;100968.84;4991196;28;20141;-77
2023/08/04 06:54:17;;;;;;;22.35;7.80;;;;;;;16.29;100.00;100967.16;4990759;28;20054;-75
2023/08/04 06:56:43;;;;;;;22.13;8.30;;;;;;;16.41;100.00;100968.38;4989180;28;20046;-74
2023/08/04 06:59:12;;;;;;;23.90;9.38;;;;;;;16.35;100.00;100954.13;4988445;28;20046;-77
2023/08/04 07:01:39;;;;;;;23.40;8.38;;;;;;;16.37;100.00;100968.47;4989487;28;20054;-77
2023/08/04 07:04:06;;;;;;;27.17;7.32;;;;;;;16.30;100.00;100968.72;4989633;28;20167;-79
2023/08/04 07:06:32;;;;;;;18.15;6.28;;;;;;;16.32;100.00;100962.66;4990510;28;20571;-77
2023/08/04 07:08:59;;;;;;;19.92;7.00;;;;;;;16.37;100.00;100960.06;4990697;28;20046;-79
2023/08/04 07:11:25;;;;;;;18.77;6.97;;;;;;;16.32;100.00;100960.66;4973277;28;20046;-79
2023/08/04 07:13:52;;;;;;;26.75;6.80;;;;;;;16.41;100.00;100965.56;4988329;28;20054;-76
2023/08/04 07:16:18;;;;;;;18.77;6.70;;;;;;;16.26;100.00;100970.06;4990720;28;20082;-78
2023/08/04 07:18:45;;;;;;;15.23;5.80;;;;;;;16.20;100.00;100969.81;4988998;28;20053;-76
2023/08/04 07:21:13;;;;;;;20.27;6.45;;;;;;;16.20;100.00;100972.63;4989652;28;20140;-75
2023/08/04 07:23:41;;;;;;;27.98;7.53;;;;;;;16.33;100.00;100981.84;4987595;28;20078;-76
2023/08/04 07:26:09;;;;;;;17.33;5.90;;;;;;;16.40;100.00;100984.41;4990270;28;20058;-78
2023/08/04 07:28:36;;;;;;;20.35;6.32;;;;;;;16.47;100.00;100977.81;4990072;28;20054;-74
2023/08/04 07:31:04;;;;;;;15.25;5.72;;;;;;;16.31;100.00;100984.31;4988465;28;20077;-78
2023/08/04 07:33:30;;;;;;;17.13;4.95;;;;;;;16.11;100.00;100986.56;4986329;28;20085;-77
2023/08/04 07:35:57;;;;;;;19.73;6.88;;;;;;;16.29;100.00;100978.38;4988225;28;20109;-74
2023/08/04 07:38:28;;;;;;;21.67;8.20;;;;;;;16.37;100.00;100979.69;4986760;28;20164;-73
2023/08/04 07:40:56;;;;;;;20.10;8.40;;;;;;;16.43;100.00;100977.09;4989016;28;20050;-78
2023/08/04 07:43:23;;;;;;;21.23;9.23;;;;;;;16.45;100.00;100972.63;4984318;28;20046;-78
2023/08/04 07:45:51;;;;;;;22.48;9.02;;;;;;;16.55;100.00;100974.31;4989359;28;20142;-77
2023/08/04 07:48:18;;;;;;;23.38;10.02;;;;;;;16.71;100.00;100976.16;4989413;28;20141;-78
2023/08/04 07:50:46;;;;;;;19.38;8.95;;;;;;;16.68;100.00;100955.38;4990823;28;20503;-78
2023/08/04 07:53:13;;;;;;;19.60;9.05;;;;;;;16.75;100.00;100954.38;4990412;28;20103;-79
2023/08/04 07:55:40;;;;;;;19.42;7.63;;;;;;;16.60;100.00;100954.06;4989440;28;20054;-78
2023/08/04 07:58:07;;;;;;;19.52;8.23;;;;;;;16.83;100.00;100962.09;4990115;28;20043;-74
2023/08/04 08:00:34;;;;;;;18.33;8.02;;;;;;;16.94;100.00;100962.50;4989771;28;20569;-76
2023/08/04 08:03:01;;;;;;;18.23;7.63;;;;;;;16.99;100.00;100969.56;4989332;28;20104;-76
2023/08/04 08:05:28;;;;;;;23.27;8.55;;;;;;;17.12;100.00;100959.09;4985035;28;20422;-77
2023/08/04 08:07:55;;;;;;;24.90;8.75;;;;;;;17.34;100.00;100969.09;4984308;28;20523;-76
2023/08/04 08:10:22;;;;;;;19.63;8.13;;;;;;;17.49;100.00;100958.09;4983030;28;20046;-78
2023/08/04 08:12:51;;;;;;;19.70;6.55;;;;;;;17.47;100.00;100960.56;4956114;28;20061;-77
2023/08/04 08:15:17;;;;;;;13.10;4.43;;;;;;;17.36;100.00;100951.75;4971017;28;20058;-75
2023/08/04 08:17:45;;;;;;;14.07;4.10;;;;;;;17.54;100.00;100949.06;4970466;28;20555;-78
2023/08/04 08:20:12;;;;;;;13.77;4.45;;;;;;;17.65;100.00;100943.81;4985083;28;20054;-78
2023/08/04 08:22:38;;;;;;;17.95;4.75;;;;;;;17.76;100.00;100949.03;4987567;28;20054;-76
2023/08/04 08:25:05;;;;;;;17.85;4.97;;;;;;;17.90;100.00;100948.47;4984620;28;20136;-77
2023/08/04 08:27:32;;;;;;;16.98;4.68;;;;;;;17.97;100.00;100948.19;4988052;28;20046;-74
2023/08/04 08:29:58;;;;;;;15.77;5.22;;;;;;;18.04;100.00;100953.53;4988906;28;20073;-77
2023/08/04 08:32:25;;;;;;;14.00;5.18;;;;;;;18.07;100.00;100953.41;4988995;28;20105;-75
2023/08/04 08:34:51;;;;;;;17.10;6.18;;;;;;;18.19;100.00;100941.25;4986026;28;20046;-73
2023/08/04 08:37:18;;;;;;;37.20;9.55;;;;;;;18.27;100.00;100938.94;4988494;28;20077;-77
2023/08/04 08:39:44;;;;;;;23.33;7.63;;;;;;;18.41;100.00;100952.41;4985768;28;20128;-75
2023/08/04 08:42:11;;;;;;;22.15;6.20;;;;;;;18.32;100.00;100946.75;4989266;28;20137;-76
2023/08/04 08:44:38;;;;;;;17.15;6.43;;;;;;;18.20;100.00;100944.84;4986321;28;20054;-79
2023/08/04 08:47:05;;;;;;;16.60;5.68;;;;;;;18.28;100.00;100963.00;4988646;28;20054;-78
2023/08/04 08:49:45;;;;;;;11.05;4.97;;;;;;;18.16;100.00;100952.66;4993076;28;20116;-78
2023/08/04 08:52:12;;;;;;;15.18;5.43;;;;;;;18.10;100.00;100954.50;4985546;28;20054;-75
2023/08/04 08:54:38;;;;;;;15.32;4.65;;;;;;;18.27;100.00;100958.63;4994248;28;20077;-78
2023/08/04 08:57:06;;;;;;;12.45;3.85;;;;;;;18.21;100.00;100952.84;4989412;28;20054;-75
2023/08/04 08:59:33;;;;;;;11.52;4.80;;;;;;;18.29;100.00;100956.91;4973888;28;20049;-80
2023/08/04 09:02:03;;;;;;;12.38;4.30;;;;;;;18.33;100.00;100951.16;4983448;28;20133;-79
2023/08/04 09:04:33;;;;;;;8.85;3.10;;;;;;;18.43;100.00;100961.19;4987902;28;20050;-78
2023/08/04 09:07:00;;;;;;;14.27;3.90;;;;;;;18.51;100.00;100954.78;4977670;28;20125;-78
2023/08/04 09:09:27;;;;;;;11.25;3.40;;;;;;;18.65;100.00;100944.94;4983147;28;20129;-74
2023/08/04 09:11:56;;;;;;;8.75;2.58;;;;;;;18.71;100.00;100957.16;4975800;28;20117;-77
2023/08/04 09:14:22;;;;;;;6.93;3.00;;;;;;;18.69;100.00;100949.19;4989162;28;20827;-78
2023/08/04 09:16:49;;;;;;;14.10;3.63;;;;;;;18.72;100.00;100944.63;4978802;28;20137;-81
2023/08/04 09:19:16;;;;;;;9.20;3.30;;;;;;;18.82;100.00;100957.50;4972954;28;20046;-78
2023/08/04 09:21:43;;;;;;;9.68;3.03;;;;;;;18.63;100.00;100950.28;4971408;28;20074;-78
2023/08/04 09:24:11;;;;;;;12.98;4.35;;;;;;;18.74;100.00;100957.03;4972072;28;20058;-78
2023/08/04 09:26:44;;;;;;;8.93;3.33;;;;;;;18.98;100.00;100954.38;4969480;28;20081;-78
2023/08/04 09:29:13;;;;;;;8.88;4.35;;;;;;;19.17;100.00;100962.34;4952247;28;20431;-79
2023/08/04 09:31:42;;;;;;;12.77;3.75;;;;;;;19.35;100.00;100958.75;4975678;28;22312;-78
2023/08/04 09:34:10;;;;;;;10.25;3.35;;;;;;;19.37;100.00;100954.19;4970287;28;20035;-78
2023/08/04 09:36:45;;;;;;;5.60;2.28;;;;;;;19.11;100.00;100950.16;4967350;28;20577;-80
2023/08/04 09:39:12;;;;;;;7.60;2.45;;;;;;;19.11;100.00;100952.19;4970137;28;20042;-77
2023/08/04 09:41:44;;;;;;;6.05;2.30;;;;;;;19.17;100.00;100950.31;4972446;28;20058;-79
2023/08/04 09:44:12;;;;;;;15.50;2.80;;;;;;;19.36;100.00;100947.00;4968978;28;20058;-79
2023/08/04 09:46:53;;;;;;;9.07;2.75;;;;;;;19.37;100.00;100945.75;4977351;28;20046;-78
2023/08/04 09:49:20;;;;;;;8.50;3.22;;;;;;;19.55;100.00;100942.91;4971557;28;20410;-77
2023/08/04 09:51:50;;;;;;;6.28;2.35;;;;;;;19.66;100.00;100950.88;4969533;28;20058;-78
2023/08/04 09:54:17;;;;;;;6.90;2.30;;;;;;;19.77;100.00;100937.03;4975691;28;20132;-77
2023/08/04 09:56:44;;;;;;;7.65;2.40;;;;;;;19.85;100.00;100938.28;4968920;28;20545;-77
2023/08/04 09:59:11;;;;;;;7.72;2.33;;;;;;;19.92;100.00;100940.75;4968726;28;20140;-80
2023/08/04 10:01:40;;;;;;;7.50;2.60;;;;;;;19.97;100.00;100951.38;4967039;28;20061;-78
2023/08/04 10:04:09;;;;;;;8.98;2.30;;;;;;;20.08;100.00;100953.69;4968400;28;20050;-78
2023/08/04 10:06:38;;;;;;;10.65;2.58;;;;;;;20.16;100.00;100944.41;4967145;28;20046;-77
2023/08/04 10:09:05;;;;;;;10.75;3.28;;;;;;;20.19;100.00;100945.50;4972323;28;20198;-79
2023/08/04 10:11:31;;;;;;;6.68;2.25;;;;;;;19.78;100.00;100944.28;4972834;28;20062;-79
2023/08/04 10:13:59;;;;;;;8.73;3.03;;;;;;;20.00;100.00;100946.81;4971760;28;20145;-78
2023/08/04 10:16:31;;;;;;;7.05;2.15;;;;;;;20.08;100.00;100946.00;4976838;28;20176;-79
2023/08/04 10:19:03;;;;;;;11.93;3.10;;;;;;;20.29;100.00;100947.03;4972698;28;20101;-79
2023/08/04 10:21:37;;;;;;;4.47;2.15;;;;;;;20.44;100.00;100945.84;4972818;28;20674;-77
2023/08/04 10:24:08;;;;;;;3.65;1.50;;;;;;;20.54;100.00;100935.25;4959552;28;20406;-79
2023/08/04 10:26:45;;;;;;;5.60;1.67;;;;;;;20.61;100.00;100941.34;4968078;28;20450;-78
2023/08/04 10:29:12;;;;;;;3.25;1.85;;;;;;;20.53;100.00;100939.34;4986778;28;20513;-79
2023/08/04 10:31:52;;;;;;;6.93;1.65;;;;;;;20.51;100.00;100945.47;4974478;28;20142;-79
2023/08/04 10:34:33;;;;;;;8.32;1.65;;;;;;;20.51;100.00;100934.19;4972522;28;20050;-78
2023/08/04 10:37:01;;;;;;;3.50;1.90;;;;;;;20.26;100.00;100940.31;4968501;28;20053;-78
2023/08/04 10:39:35;;;;;;;4.70;1.80;;;;;;;20.42;100.00;100939.88;4977427;28;20043;-76
2023/08/04 10:42:21;;;;;;;5.78;2.03;;;;;;;20.77;100.00;100946.56;4964990;28;20058;-80
2023/08/04 10:44:50;;;;;;;7.85;2.22;;;;;;;21.14;100.00;100947.06;4968935;28;20050;-78
2023/08/04 10:47:39;;;;;;;4.40;1.80;;;;;;;21.41;100.00;100941.94;4973180;28;20094;-78
2023/08/04 10:50:25;;;;;;;5.22;1.90;;;;;;;21.42;100.00;100942.69;4967563;28;20053;-80
2023/08/04 10:52:51;;;;;;;5.40;2.13;;;;;;;21.64;100.00;100954.44;4966492;28;20802;-79
2023/08/04 10:55:18;;;;;;;10.20;3.15;;;;;;;21.74;100.00;100953.84;4974994;28;20058;-76
2023/08/04 10:57:44;;;;;;;5.97;1.75;;;;;;;21.53;100.00;100951.38;4970677;28;20054;-82
2023/08/04 11:00:12;;;;;;;4.90;1.52;;;;;;;21.35;100.00;100951.56;4970673;28;20074;-80
2023/08/04 11:02:39;;;;;;;3.13;1.20;;;;;;;21.24;100.00;100957.03;4970114;28;20050;-81
2023/08/04 11:05:08;;;;;;;3.88;1.50;;;;;;;21.14;100.00;100947.84;4970333;28;20058;-83
2023/08/04 11:07:35;;;;;;;7.00;1.92;;;;;;;21.26;100.00;100943.97;4970129;28;20054;-78
2023/08/04 11:10:06;;;;;;;5.47;1.90;;;;;;;21.34;100.00;100947.97;4987266;28;20061;-79
2023/08/04 11:12:35;;;;;;;5.57;1.45;;;;;;;21.67;100.00;100951.41;4990718;28;20100;-78